sensor_id;sensor_type;location;lat;lon;timestamp;pressure;altitude;pressure_sealevel;temperature;humidity
7834;BME280;3962;42.696;23.354;2023-01-04T00:02:20;96178.03;;;5.62;98.49
7834;BME280;3962;42.696;23.354;2023-01-04T00:04:46;96172.31;;;5.13;94.93
7834;BME280;3962;42.696;23.354;2023-01-04T00:07:13;96175.56;;;4.89;95.31
7834;BME280;3962;42.696;23.354;2023-01-04T00:09:40;96176.22;;;4.64;95.26
7834;BME280;3962;42.696;23.354;2023-01-04T00:12:07;96176.97;;;4.66;96.23
7834;BME280;3962;42.696;23.354;2023-01-04T00:14:33;96168.59;;;4.44;94.45
7834;BME280;3962;42.696;23.354;2023-01-04T00:17:02;96176.03;;;4.38;95.64
7834;BME280;3962;42.696;23.354;2023-01-04T00:19:29;96183.66;;;4.42;95.88
7834;BME280;3962;42.696;23.354;2023-01-04T00:21:55;96174.22;;;4.38;97.19
7834;BME280;3962;42.696;23.354;2023-01-04T00:24:22;96174.22;;;4.38;96.83
7834;BME280;3962;42.696;23.354;2023-01-04T00:26:49;96182.06;;;4.40;97.41
7834;BME280;3962;42.696;23.354;2023-01-04T00:29:16;96184.47;;;4.29;96.75
7834;BME280;3962;42.696;23.354;2023-01-04T00:31:43;96179.19;;;4.29;96.92
7834;BME280;3962;42.696;23.354;2023-01-04T00:34:13;96185.28;;;4.29;97.23
7834;BME280;3962;42.696;23.354;2023-01-04T00:36:40;96175.69;;;4.28;97.01
7834;BME280;3962;42.696;23.354;2023-01-04T00:39:09;96185.28;;;4.29;97.50
7834;BME280;3962;42.696;23.354;2023-01-04T00:41:40;96171.69;;;4.37;97.67
7834;BME280;3962;42.696;23.354;2023-01-04T00:44:09;96167.25;;;4.37;97.32
7834;BME280;3962;42.696;23.354;2023-01-04T00:46:36;96167.59;;;4.47;97.17
7834;BME280;3962;42.696;23.354;2023-01-04T00:49:04;96167.75;;;4.44;96.95
7834;BME280;3962;42.696;23.354;2023-01-04T00:51:34;96177.50;;;4.57;97.88
7834;BME280;3962;42.696;23.354;2023-01-04T00:54:03;96170.28;;;4.61;96.42
7834;BME280;3962;42.696;23.354;2023-01-04T00:56:31;96178.34;;;4.58;96.25
7834;BME280;3962;42.696;23.354;2023-01-04T00:59:00;96174.63;;;4.46;96.25
7834;BME280;3962;42.696;23.354;2023-01-04T01:01:28;96178.53;;;4.55;96.36
7834;BME280;3962;42.696;23.354;2023-01-04T01:03:57;96190.72;;;4.42;96.06
7834;BME280;3962;42.696;23.354;2023-01-04T01:06:24;96194.94;;;4.15;95.23
7834;BME280;3962;42.696;23.354;2023-01-04T01:08:53;96198.50;;;3.67;94.81
7834;BME280;3962;42.696;23.354;2023-01-04T01:11:20;96198.91;;;3.44;95.63
7834;BME280;3962;42.696;23.354;2023-01-04T01:13:47;96209.00;;;3.37;96.22
7834;BME280;3962;42.696;23.354;2023-01-04T01:16:16;96201.53;;;3.44;97.85
7834;BME280;3962;42.696;23.354;2023-01-04T01:18:44;96209.03;;;3.67;99.06
7834;BME280;3962;42.696;23.354;2023-01-04T01:21:13;96202.59;;;3.88;98.81
7834;BME280;3962;42.696;23.354;2023-01-04T01:23:41;96209.91;;;3.99;99.04
7834;BME280;3962;42.696;23.354;2023-01-04T01:26:12;96199.09;;;4.03;98.97
7834;BME280;3962;42.696;23.354;2023-01-04T01:28:40;96202.06;;;4.13;98.87
7834;BME280;3962;42.696;23.354;2023-01-04T01:31:08;96198.91;;;4.22;98.51
7834;BME280;3962;42.696;23.354;2023-01-04T01:33:35;96201.28;;;4.26;98.62
7834;BME280;3962;42.696;23.354;2023-01-04T01:36:03;96199.34;;;4.30;98.47
7834;BME280;3962;42.696;23.354;2023-01-04T01:38:30;96195.66;;;4.32;98.32
7834;BME280;3962;42.696;23.354;2023-01-04T01:40:57;96198.03;;;4.37;98.44
7834;BME280;3962;42.696;23.354;2023-01-04T01:43:47;96188.69;;;4.31;97.75
7834;BME280;3962;42.696;23.354;2023-01-04T01:46:15;96189.75;;;4.13;97.52
7834;BME280;3962;42.696;23.354;2023-01-04T01:48:43;96193.59;;;4.08;97.69
7834;BME280;3962;42.696;23.354;2023-01-04T01:51:10;96181.25;;;4.08;97.68
7834;BME280;3962;42.696;23.354;2023-01-04T01:53:39;96185.78;;;5.37;100.00
7834;BME280;3962;42.696;23.354;2023-01-04T01:56:09;96175.19;;;6.46;100.00
7834;BME280;3962;42.696;23.354;2023-01-04T01:58:39;96185.06;;;7.07;100.00
7834;BME280;3962;42.696;23.354;2023-01-04T02:01:09;96153.19;;;7.34;100.00
7834;BME280;3962;42.696;23.354;2023-01-04T02:03:39;96164.66;;;7.83;98.47
7834;BME280;3962;42.696;23.354;2023-01-04T02:06:09;96162.84;;;7.96;96.75
7834;BME280;3962;42.696;23.354;2023-01-04T02:08:38;96160.59;;;8.02;95.39
7834;BME280;3962;42.696;23.354;2023-01-04T02:11:05;96172.84;;;8.16;95.06
7834;BME280;3962;42.696;23.354;2023-01-04T02:13:33;96169.34;;;8.15;94.51
7834;BME280;3962;42.696;23.354;2023-01-04T02:16:22;96178.69;;;8.21;94.20
7834;BME280;3962;42.696;23.354;2023-01-04T02:18:54;96176.31;;;8.29;94.31
7834;BME280;3962;42.696;23.354;2023-01-04T02:21:28;96171.03;;;8.29;93.69
7834;BME280;3962;42.696;23.354;2023-01-04T02:24:23;96168.75;;;8.35;93.45
7834;BME280;3962;42.696;23.354;2023-01-04T02:33:21;96166.06;;;8.24;93.29
7834;BME280;3962;42.696;23.354;2023-01-04T02:35:57;96169.53;;;8.25;93.65
7834;BME280;3962;42.696;23.354;2023-01-04T02:38:27;96172.94;;;8.27;93.34
7834;BME280;3962;42.696;23.354;2023-01-04T02:41:02;96167.50;;;8.28;93.12
7834;BME280;3962;42.696;23.354;2023-01-04T02:43:36;96174.41;;;8.31;93.42
7834;BME280;3962;42.696;23.354;2023-01-04T02:46:26;96169.19;;;8.29;93.11
7834;BME280;3962;42.696;23.354;2023-01-04T02:48:59;96176.84;;;8.34;93.35
7834;BME280;3962;42.696;23.354;2023-01-04T02:51:44;96174.41;;;8.31;92.94
7834;BME280;3962;42.696;23.354;2023-01-04T02:54:14;96168.47;;;8.27;93.65
7834;BME280;3962;42.696;23.354;2023-01-04T02:56:58;96171.84;;;8.29;93.44
7834;BME280;3962;42.696;23.354;2023-01-04T02:59:40;96173.88;;;8.26;93.06
7834;BME280;3962;42.696;23.354;2023-01-04T03:02:23;96162.00;;;8.31;92.94
7834;BME280;3962;42.696;23.354;2023-01-04T03:05:18;96163.63;;;8.21;93.19
7834;BME280;3962;42.696;23.354;2023-01-04T03:08:11;96169.78;;;8.22;93.59
7834;BME280;3962;42.696;23.354;2023-01-04T03:10:44;96165.44;;;8.21;93.32
7834;BME280;3962;42.696;23.354;2023-01-04T03:13:17;96163.09;;;8.16;93.37
7834;BME280;3962;42.696;23.354;2023-01-04T03:15:47;96164.25;;;8.12;93.48
7834;BME280;3962;42.696;23.354;2023-01-04T03:18:19;96168.50;;;8.15;93.19
7834;BME280;3962;42.696;23.354;2023-01-04T03:20:49;96159.72;;;8.14;93.69
7834;BME280;3962;42.696;23.354;2023-01-04T03:23:20;96160.53;;;8.15;93.49
7834;BME280;3962;42.696;23.354;2023-01-04T03:26:08;96170.75;;;8.21;93.26
7834;BME280;3962;42.696;23.354;2023-01-04T03:28:54;96178.25;;;8.14;93.59
7834;BME280;3962;42.696;23.354;2023-01-04T03:31:43;96185.47;;;8.12;93.16
7834;BME280;3962;42.696;23.354;2023-01-04T03:34:29;96179.31;;;8.12;93.23
7834;BME280;3962;42.696;23.354;2023-01-04T03:37:21;96179.31;;;8.12;93.18
7834;BME280;3962;42.696;23.354;2023-01-04T03:39:59;96180.63;;;8.19;93.34
7834;BME280;3962;42.696;23.354;2023-01-04T03:42:50;96181.97;;;8.12;93.41
7834;BME280;3962;42.696;23.354;2023-01-04T03:45:42;96179.19;;;8.13;93.46
7834;BME280;3962;42.696;23.354;2023-01-04T03:48:31;96180.78;;;8.16;93.18
7834;BME280;3962;42.696;23.354;2023-01-04T03:51:10;96176.03;;;8.21;93.21
7834;BME280;3962;42.696;23.354;2023-01-04T03:53:47;96169.06;;;8.20;93.03
7834;BME280;3962;42.696;23.354;2023-01-04T03:56:16;96184.91;;;8.32;92.61
7834;BME280;3962;42.696;23.354;2023-01-04T03:58:47;96187.91;;;8.28;91.78
7834;BME280;3962;42.696;23.354;2023-01-04T04:01:14;96186.66;;;8.21;92.44
7834;BME280;3962;42.696;23.354;2023-01-04T04:03:43;96181.09;;;8.24;92.76
7834;BME280;3962;42.696;23.354;2023-01-04T04:06:27;96187.13;;;8.26;92.74
7834;BME280;3962;42.696;23.354;2023-01-04T04:09:12;96195.72;;;8.29;92.31
7834;BME280;3962;42.696;23.354;2023-01-04T04:11:39;96177.81;;;8.20;91.81
7834;BME280;3962;42.696;23.354;2023-01-04T04:14:06;96187.66;;;8.18;92.13
7834;BME280;3962;42.696;23.354;2023-01-04T04:16:33;96190.97;;;8.22;92.50
7834;BME280;3962;42.696;23.354;2023-01-04T04:18:59;96194.59;;;8.21;92.07
7834;BME280;3962;42.696;23.354;2023-01-04T04:21:26;96195.00;;;8.27;92.09
7834;BME280;3962;42.696;23.354;2023-01-04T04:23:53;96196.69;;;8.28;91.94
7834;BME280;3962;42.696;23.354;2023-01-04T04:26:21;96196.34;;;8.33;91.52
7834;BME280;3962;42.696;23.354;2023-01-04T04:28:49;96194.44;;;8.35;91.10
7834;BME280;3962;42.696;23.354;2023-01-04T04:31:16;96192.28;;;8.40;91.70
7834;BME280;3962;42.696;23.354;2023-01-04T04:33:43;96203.13;;;8.37;90.98
7834;BME280;3962;42.696;23.354;2023-01-04T04:36:09;96199.63;;;8.36;91.55
7834;BME280;3962;42.696;23.354;2023-01-04T04:38:37;96207.56;;;8.36;91.00
7834;BME280;3962;42.696;23.354;2023-01-04T04:41:08;96210.34;;;8.35;90.93
7834;BME280;3962;42.696;23.354;2023-01-04T04:43:54;96202.22;;;8.25;90.78
7834;BME280;3962;42.696;23.354;2023-01-04T04:46:21;96201.81;;;8.19;91.31
7834;BME280;3962;42.696;23.354;2023-01-04T04:48:48;96205.19;;;8.21;91.76
7834;BME280;3962;42.696;23.354;2023-01-04T04:51:15;96214.59;;;8.25;92.02
7834;BME280;3962;42.696;23.354;2023-01-04T04:53:42;96211.13;;;8.24;91.44
7834;BME280;3962;42.696;23.354;2023-01-04T04:56:08;96211.97;;;8.25;91.60
7834;BME280;3962;42.696;23.354;2023-01-04T04:58:35;96203.91;;;8.26;91.28
7834;BME280;3962;42.696;23.354;2023-01-04T05:01:04;96213.53;;;8.27;91.39
7834;BME280;3962;42.696;23.354;2023-01-04T05:03:31;96216.28;;;8.26;91.78
7834;BME280;3962;42.696;23.354;2023-01-04T05:05:58;96213.88;;;8.23;91.62
7834;BME280;3962;42.696;23.354;2023-01-04T05:08:25;96215.69;;;8.10;91.93
7834;BME280;3962;42.696;23.354;2023-01-04T05:10:52;96215.06;;;8.19;92.06
7834;BME280;3962;42.696;23.354;2023-01-04T05:13:19;96222.13;;;8.18;91.62
7834;BME280;3962;42.696;23.354;2023-01-04T05:15:46;96221.84;;;8.23;91.27
7834;BME280;3962;42.696;23.354;2023-01-04T05:18:16;96223.91;;;8.18;91.19
7834;BME280;3962;42.696;23.354;2023-01-04T05:20:44;96228.97;;;8.22;91.43
7834;BME280;3962;42.696;23.354;2023-01-04T05:23:12;96222.06;;;8.07;91.57
7834;BME280;3962;42.696;23.354;2023-01-04T05:25:39;96217.81;;;8.05;91.86
7834;BME280;3962;42.696;23.354;2023-01-04T05:28:07;96220.25;;;8.08;91.95
7834;BME280;3962;42.696;23.354;2023-01-04T05:30:34;96224.38;;;8.12;91.85
7834;BME280;3962;42.696;23.354;2023-01-04T05:33:17;96232.00;;;8.16;91.65
7834;BME280;3962;42.696;23.354;2023-01-04T05:35:43;96233.69;;;8.17;91.77
7834;BME280;3962;42.696;23.354;2023-01-04T05:38:11;96235.94;;;8.11;92.42
7834;BME280;3962;42.696;23.354;2023-01-04T05:40:38;96240.69;;;8.18;92.00
7834;BME280;3962;42.696;23.354;2023-01-04T05:43:05;96238.13;;;8.17;91.80
7834;BME280;3962;42.696;23.354;2023-01-04T05:45:32;96243.38;;;8.06;92.44
7834;BME280;3962;42.696;23.354;2023-01-04T05:47:59;96243.91;;;8.11;92.69
7834;BME280;3962;42.696;23.354;2023-01-04T05:50:27;96241.13;;;8.12;91.94
7834;BME280;3962;42.696;23.354;2023-01-04T05:52:54;96238.69;;;8.09;91.67
7834;BME280;3962;42.696;23.354;2023-01-04T05:55:21;96249.31;;;8.09;91.98
7834;BME280;3962;42.696;23.354;2023-01-04T05:57:49;96252.47;;;8.14;91.81
7834;BME280;3962;42.696;23.354;2023-01-04T06:00:16;96239.66;;;8.21;91.76
7834;BME280;3962;42.696;23.354;2023-01-04T06:02:43;96248.00;;;8.27;91.50
7834;BME280;3962;42.696;23.354;2023-01-04T06:05:11;96244.63;;;8.25;90.86
7834;BME280;3962;42.696;23.354;2023-01-04T06:07:39;96248.97;;;8.14;91.22
7834;BME280;3962;42.696;23.354;2023-01-04T06:10:08;96247.19;;;8.14;91.34
7834;BME280;3962;42.696;23.354;2023-01-04T06:12:36;96250.38;;;8.19;91.19
7834;BME280;3962;42.696;23.354;2023-01-04T06:15:04;96263.63;;;8.19;90.93
7834;BME280;3962;42.696;23.354;2023-01-04T06:17:32;96254.81;;;8.31;90.89
7834;BME280;3962;42.696;23.354;2023-01-04T06:19:59;96250.31;;;8.32;90.61
7834;BME280;3962;42.696;23.354;2023-01-04T06:22:27;96257.56;;;8.30;90.35
7834;BME280;3962;42.696;23.354;2023-01-04T06:24:55;96264.13;;;8.37;90.62
7834;BME280;3962;42.696;23.354;2023-01-04T06:27:22;96264.00;;;8.38;90.25
7834;BME280;3962;42.696;23.354;2023-01-04T06:29:48;96260.22;;;8.30;90.15
7834;BME280;3962;42.696;23.354;2023-01-04T06:32:15;96263.72;;;8.30;90.55
7834;BME280;3962;42.696;23.354;2023-01-04T06:34:42;96261.06;;;8.30;90.52
7834;BME280;3962;42.696;23.354;2023-01-04T06:37:09;96267.94;;;8.33;90.69
7834;BME280;3962;42.696;23.354;2023-01-04T06:39:36;96275.34;;;8.40;90.75
7834;BME280;3962;42.696;23.354;2023-01-04T06:42:05;96278.50;;;8.45;89.87
7834;BME280;3962;42.696;23.354;2023-01-04T06:44:51;96281.91;;;8.47;89.84
7834;BME280;3962;42.696;23.354;2023-01-04T06:47:18;96284.56;;;8.47;90.35
7834;BME280;3962;42.696;23.354;2023-01-04T06:49:45;96282.28;;;8.30;90.17
7834;BME280;3962;42.696;23.354;2023-01-04T06:52:12;96280.03;;;8.37;90.83
7834;BME280;3962;42.696;23.354;2023-01-04T06:54:39;96281.72;;;8.38;90.29
7834;BME280;3962;42.696;23.354;2023-01-04T06:57:07;96265.13;;;8.47;90.17
7834;BME280;3962;42.696;23.354;2023-01-04T06:59:34;96278.34;;;8.36;89.45
7834;BME280;3962;42.696;23.354;2023-01-04T07:02:01;96285.66;;;8.32;89.79
7834;BME280;3962;42.696;23.354;2023-01-04T07:04:27;96280.72;;;8.51;90.06
7834;BME280;3962;42.696;23.354;2023-01-04T07:06:54;96277.53;;;8.59;89.03
7834;BME280;3962;42.696;23.354;2023-01-04T07:09:22;96269.16;;;8.52;89.03
7834;BME280;3962;42.696;23.354;2023-01-04T07:11:49;96272.13;;;8.48;88.81
7834;BME280;3962;42.696;23.354;2023-01-04T07:14:17;96282.06;;;8.57;88.96
7834;BME280;3962;42.696;23.354;2023-01-04T07:16:44;96283.59;;;8.72;88.53
7834;BME280;3962;42.696;23.354;2023-01-04T07:19:11;96287.75;;;8.76;87.57
7834;BME280;3962;42.696;23.354;2023-01-04T07:21:37;96297.44;;;8.64;87.52
7834;BME280;3962;42.696;23.354;2023-01-04T07:24:04;96289.81;;;8.60;87.82
7834;BME280;3962;42.696;23.354;2023-01-04T07:26:32;96295.47;;;8.55;88.00
7834;BME280;3962;42.696;23.354;2023-01-04T07:28:59;96312.78;;;8.48;88.20
7834;BME280;3962;42.696;23.354;2023-01-04T07:31:44;96310.09;;;8.61;87.79
7834;BME280;3962;42.696;23.354;2023-01-04T07:34:11;96304.09;;;8.70;87.22
7834;BME280;3962;42.696;23.354;2023-01-04T07:36:38;96294.69;;;8.66;87.29
7834;BME280;3962;42.696;23.354;2023-01-04T07:39:06;96299.81;;;8.56;87.58
7834;BME280;3962;42.696;23.354;2023-01-04T07:41:35;96296.88;;;8.72;87.13
7834;BME280;3962;42.696;23.354;2023-01-04T07:44:02;96305.03;;;8.81;86.98
7834;BME280;3962;42.696;23.354;2023-01-04T07:46:30;96295.75;;;8.87;86.58
7834;BME280;3962;42.696;23.354;2023-01-04T07:48:58;96294.13;;;8.73;86.38
7834;BME280;3962;42.696;23.354;2023-01-04T07:51:25;96297.59;;;8.86;86.26
7834;BME280;3962;42.696;23.354;2023-01-04T07:53:52;96292.81;;;8.79;86.05
7834;BME280;3962;42.696;23.354;2023-01-04T07:56:19;96307.44;;;8.84;86.11
7834;BME280;3962;42.696;23.354;2023-01-04T07:58:46;96304.28;;;8.79;85.91
7834;BME280;3962;42.696;23.354;2023-01-04T08:01:14;96314.97;;;8.90;85.77
7834;BME280;3962;42.696;23.354;2023-01-04T08:03:43;96304.91;;;8.83;86.17
7834;BME280;3962;42.696;23.354;2023-01-04T08:06:13;96318.63;;;8.77;85.93
7834;BME280;3962;42.696;23.354;2023-01-04T08:08:41;96304.13;;;8.93;85.78
7834;BME280;3962;42.696;23.354;2023-01-04T08:11:10;96314.56;;;9.31;84.90
7834;BME280;3962;42.696;23.354;2023-01-04T08:13:38;96314.25;;;9.46;83.96
7834;BME280;3962;42.696;23.354;2023-01-04T08:16:05;96312.88;;;9.75;82.37
7834;BME280;3962;42.696;23.354;2023-01-04T08:18:33;96320.94;;;10.08;82.66
7834;BME280;3962;42.696;23.354;2023-01-04T08:21:01;96319.78;;;10.98;86.54
7834;BME280;3962;42.696;23.354;2023-01-04T08:23:29;96305.91;;;10.84;80.94
7834;BME280;3962;42.696;23.354;2023-01-04T08:26:00;96317.81;;;10.47;82.85
7834;BME280;3962;42.696;23.354;2023-01-04T08:28:27;96322.03;;;10.28;80.14
7834;BME280;3962;42.696;23.354;2023-01-04T08:30:54;96315.50;;;10.21;81.89
7834;BME280;3962;42.696;23.354;2023-01-04T08:33:21;96328.22;;;10.61;81.45
7834;BME280;3962;42.696;23.354;2023-01-04T08:35:48;96322.53;;;10.11;79.29
7834;BME280;3962;42.696;23.354;2023-01-04T08:38:15;96318.53;;;10.05;80.03
7834;BME280;3962;42.696;23.354;2023-01-04T08:40:43;96313.50;;;9.79;80.35
7834;BME280;3962;42.696;23.354;2023-01-04T08:43:10;96321.50;;;9.55;81.35
7834;BME280;3962;42.696;23.354;2023-01-04T08:45:36;96323.22;;;9.56;81.47
7834;BME280;3962;42.696;23.354;2023-01-04T08:48:03;96326.56;;;9.47;81.78
7834;BME280;3962;42.696;23.354;2023-01-04T08:50:31;96332.72;;;9.48;81.88
7834;BME280;3962;42.696;23.354;2023-01-04T08:52:57;96317.66;;;9.48;82.20
7834;BME280;3962;42.696;23.354;2023-01-04T08:55:24;96324.16;;;9.55;82.09
7834;BME280;3962;42.696;23.354;2023-01-04T08:57:52;96322.25;;;9.23;82.29
7834;BME280;3962;42.696;23.354;2023-01-04T09:00:19;96329.22;;;9.47;82.70
7834;BME280;3962;42.696;23.354;2023-01-04T09:02:47;96327.06;;;9.52;81.96
7834;BME280;3962;42.696;23.354;2023-01-04T09:05:14;96326.72;;;9.57;81.93
7834;BME280;3962;42.696;23.354;2023-01-04T09:07:40;96329.72;;;9.52;81.89
7834;BME280;3962;42.696;23.354;2023-01-04T09:10:08;96329.00;;;9.50;81.87
7834;BME280;3962;42.696;23.354;2023-01-04T09:12:35;96326.53;;;9.36;81.70
7834;BME280;3962;42.696;23.354;2023-01-04T09:15:04;96322.06;;;9.37;82.01
7834;BME280;3962;42.696;23.354;2023-01-04T09:17:31;96323.94;;;9.24;82.19
7834;BME280;3962;42.696;23.354;2023-01-04T09:19:57;96325.81;;;9.34;82.62
7834;BME280;3962;42.696;23.354;2023-01-04T09:22:24;96316.00;;;9.35;82.08
7834;BME280;3962;42.696;23.354;2023-01-04T09:24:51;96317.59;;;9.37;81.74
7834;BME280;3962;42.696;23.354;2023-01-04T09:27:18;96316.25;;;9.32;81.21
7834;BME280;3962;42.696;23.354;2023-01-04T09:29:45;96307.94;;;9.36;81.37
7834;BME280;3962;42.696;23.354;2023-01-04T09:32:13;96304.63;;;9.22;81.26
7834;BME280;3962;42.696;23.354;2023-01-04T09:34:41;96312.81;;;9.19;81.40
7834;BME280;3962;42.696;23.354;2023-01-04T09:37:08;96312.09;;;8.93;82.30
7834;BME280;3962;42.696;23.354;2023-01-04T09:39:34;96310.72;;;9.11;81.75
7834;BME280;3962;42.696;23.354;2023-01-04T09:42:02;96304.91;;;8.83;82.08
7834;BME280;3962;42.696;23.354;2023-01-04T09:44:40;96310.09;;;8.84;82.44
7834;BME280;3962;42.696;23.354;2023-01-04T09:47:12;96311.97;;;8.95;82.30
7834;BME280;3962;42.696;23.354;2023-01-04T09:52:14;96296.66;;;8.75;83.26
7834;BME280;3962;42.696;23.354;2023-01-04T09:54:45;96295.41;;;8.68;83.18
7834;BME280;3962;42.696;23.354;2023-01-04T09:57:19;96295.63;;;8.65;84.01
7834;BME280;3962;42.696;23.354;2023-01-04T09:59:50;96295.63;;;8.65;83.86
7834;BME280;3962;42.696;23.354;2023-01-04T10:02:24;96308.75;;;8.79;83.71
7834;BME280;3962;42.696;23.354;2023-01-04T10:04:59;96297.59;;;8.86;83.04
7834;BME280;3962;42.696;23.354;2023-01-04T10:07:29;96310.31;;;8.81;82.73
7834;BME280;3962;42.696;23.354;2023-01-04T10:09:57;96303.88;;;8.73;83.49
7834;BME280;3962;42.696;23.354;2023-01-04T10:12:35;96306.66;;;8.95;82.97
7834;BME280;3962;42.696;23.354;2023-01-04T10:15:16;96303.56;;;8.77;82.79
7834;BME280;3962;42.696;23.354;2023-01-04T10:18:02;96301.31;;;8.84;82.79
7834;BME280;3962;42.696;23.354;2023-01-04T10:20:50;96306.56;;;8.96;82.41
7834;BME280;3962;42.696;23.354;2023-01-04T10:23:31;96305.69;;;8.96;82.42
7834;BME280;3962;42.696;23.354;2023-01-04T10:26:06;96295.94;;;8.96;82.35
7834;BME280;3962;42.696;23.354;2023-01-04T10:28:47;96298.06;;;8.91;82.80
7834;BME280;3962;42.696;23.354;2023-01-04T10:31:23;96305.25;;;9.02;82.73
7834;BME280;3962;42.696;23.354;2023-01-04T10:33:56;96297.38;;;9.24;82.59
7834;BME280;3962;42.696;23.354;2023-01-04T10:36:30;96293.06;;;9.34;81.04
7834;BME280;3962;42.696;23.354;2023-01-04T10:39:00;96294.09;;;9.09;81.86
7834;BME280;3962;42.696;23.354;2023-01-04T10:41:32;96292.56;;;8.94;82.15
7834;BME280;3962;42.696;23.354;2023-01-04T10:44:06;96292.38;;;8.85;82.80
7834;BME280;3962;42.696;23.354;2023-01-04T10:46:41;96286.69;;;8.78;83.16
7834;BME280;3962;42.696;23.354;2023-01-04T10:49:11;96300.88;;;8.90;82.59
7834;BME280;3962;42.696;23.354;2023-01-04T10:51:47;96283.72;;;8.94;82.19
7834;BME280;3962;42.696;23.354;2023-01-04T10:54:23;96300.88;;;8.90;82.79
7834;BME280;3962;42.696;23.354;2023-01-04T10:56:55;96298.88;;;9.04;82.84
7834;BME280;3962;42.696;23.354;2023-01-04T10:59:28;96290.94;;;9.15;82.53
7834;BME280;3962;42.696;23.354;2023-01-04T11:02:05;96288.97;;;9.30;82.22
7834;BME280;3962;42.696;23.354;2023-01-04T11:04:38;96280.13;;;9.53;81.76
7834;BME280;3962;42.696;23.354;2023-01-04T11:07:14;96276.59;;;9.52;80.45
7834;BME280;3962;42.696;23.354;2023-01-04T11:09:47;96281.03;;;9.41;80.26
7834;BME280;3962;42.696;23.354;2023-01-04T11:12:18;96267.72;;;9.30;80.92
7834;BME280;3962;42.696;23.354;2023-01-04T11:14:47;96272.69;;;9.34;80.43
7834;BME280;3962;42.696;23.354;2023-01-04T11:17:14;96263.78;;;9.46;80.35
7834;BME280;3962;42.696;23.354;2023-01-04T11:19:41;96264.72;;;9.34;80.23
7834;BME280;3962;42.696;23.354;2023-01-04T11:22:14;96266.16;;;9.38;81.04
7834;BME280;3962;42.696;23.354;2023-01-04T11:24:48;96262.81;;;9.47;80.19
7834;BME280;3962;42.696;23.354;2023-01-04T11:27:21;96261.53;;;9.64;79.73
7834;BME280;3962;42.696;23.354;2023-01-04T11:29:53;96263.72;;;9.70;78.92
7834;BME280;3962;42.696;23.354;2023-01-04T11:32:31;96260.56;;;9.65;78.74
7834;BME280;3962;42.696;23.354;2023-01-04T11:34:59;96251.50;;;9.56;78.96
7834;BME280;3962;42.696;23.354;2023-01-04T11:37:29;96246.19;;;9.56;79.02
7834;BME280;3962;42.696;23.354;2023-01-04T11:40:21;96249.56;;;9.69;79.26
7834;BME280;3962;42.696;23.354;2023-01-04T11:42:50;96242.78;;;9.54;79.02
7834;BME280;3962;42.696;23.354;2023-01-04T11:45:21;96237.59;;;9.53;79.52
7834;BME280;3962;42.696;23.354;2023-01-04T11:47:53;96238.53;;;9.41;79.54
7834;BME280;3962;42.696;23.354;2023-01-04T11:50:36;96238.28;;;9.44;80.13
7834;BME280;3962;42.696;23.354;2023-01-04T11:53:24;96232.00;;;9.34;80.13
7834;BME280;3962;42.696;23.354;2023-01-04T11:56:07;96239.50;;;9.51;80.29
7834;BME280;3962;42.696;23.354;2023-01-04T11:58:34;96232.41;;;9.51;79.73
7834;BME280;3962;42.696;23.354;2023-01-04T12:01:01;96234.44;;;9.59;80.25
7834;BME280;3962;42.696;23.354;2023-01-04T12:03:30;96221.88;;;9.39;80.54
7834;BME280;3962;42.696;23.354;2023-01-04T12:05:58;96232.13;;;9.43;80.47
7834;BME280;3962;42.696;23.354;2023-01-04T12:08:30;96225.06;;;9.77;80.30
7834;BME280;3962;42.696;23.354;2023-01-04T12:10:58;96215.53;;;9.96;78.85
7834;BME280;3962;42.696;23.354;2023-01-04T12:13:26;96213.13;;;10.15;78.09
7834;BME280;3962;42.696;23.354;2023-01-04T12:16:00;96224.25;;;10.09;77.65
7834;BME280;3962;42.696;23.354;2023-01-04T12:18:31;96233.88;;;9.99;77.76
7834;BME280;3962;42.696;23.354;2023-01-04T12:21:00;96226.28;;;9.84;78.75
7834;BME280;3962;42.696;23.354;2023-01-04T12:23:29;96230.28;;;9.89;78.38
7834;BME280;3962;42.696;23.354;2023-01-04T12:25:56;96228.09;;;9.83;78.33
7834;BME280;3962;42.696;23.354;2023-01-04T12:28:32;96230.84;;;9.82;78.48
7834;BME280;3962;42.696;23.354;2023-01-04T12:31:28;96229.16;;;9.70;78.61
7834;BME280;3962;42.696;23.354;2023-01-04T12:33:56;96224.06;;;9.67;79.19
7834;BME280;3962;42.696;23.354;2023-01-04T12:36:52;96227.94;;;9.74;79.41
7834;BME280;3962;42.696;23.354;2023-01-04T12:39:44;96232.28;;;9.75;79.21
7834;BME280;3962;42.696;23.354;2023-01-04T12:42:20;96227.09;;;9.62;79.40
7834;BME280;3962;42.696;23.354;2023-01-04T12:45:21;96221.78;;;9.51;80.38
7834;BME280;3962;42.696;23.354;2023-01-04T12:47:53;96212.59;;;9.44;80.08
7834;BME280;3962;42.696;23.354;2023-01-04T12:51:16;96219.09;;;9.40;80.83
7834;BME280;3962;42.696;23.354;2023-01-04T12:53:57;96211.81;;;9.31;81.09
7834;BME280;3962;42.696;23.354;2023-01-04T12:57:12;96218.59;;;9.35;81.34
7834;BME280;3962;42.696;23.354;2023-01-04T12:59:56;96215.50;;;9.52;80.36
7834;BME280;3962;42.696;23.354;2023-01-04T13:02:25;96203.78;;;9.55;79.83
7834;BME280;3962;42.696;23.354;2023-01-04T13:04:53;96205.47;;;9.45;80.79
7834;BME280;3962;42.696;23.354;2023-01-04T13:07:23;96206.19;;;9.58;80.27
7834;BME280;3962;42.696;23.354;2023-01-04T13:09:55;96201.03;;;9.56;80.14
7834;BME280;3962;42.696;23.354;2023-01-04T13:12:59;96204.50;;;9.57;80.45
7834;BME280;3962;42.696;23.354;2023-01-04T13:15:40;96208.75;;;9.59;80.30
7834;BME280;3962;42.696;23.354;2023-01-04T13:18:27;96212.88;;;9.74;80.16
7834;BME280;3962;42.696;23.354;2023-01-04T13:20:59;96218.44;;;9.82;79.61
7834;BME280;3962;42.696;23.354;2023-01-04T13:23:26;96215.28;;;9.77;79.54
7834;BME280;3962;42.696;23.354;2023-01-04T13:25:54;96224.06;;;9.67;79.84
7834;BME280;3962;42.696;23.354;2023-01-04T13:28:23;96226.13;;;9.63;80.24
7834;BME280;3962;42.696;23.354;2023-01-04T13:30:56;96224.56;;;9.72;79.99
7834;BME280;3962;42.696;23.354;2023-01-04T13:33:25;96228.91;;;9.73;80.13
7834;BME280;3962;42.696;23.354;2023-01-04T13:36:01;96217.22;;;9.64;80.47
7834;BME280;3962;42.696;23.354;2023-01-04T13:38:32;96222.50;;;9.53;80.83
7834;BME280;3962;42.696;23.354;2023-01-04T13:40:59;96219.31;;;9.37;81.18
7834;BME280;3962;42.696;23.354;2023-01-04T13:43:50;96222.34;;;9.44;81.59
7834;BME280;3962;42.696;23.354;2023-01-04T13:46:21;96221.41;;;9.45;81.15
7834;BME280;3962;42.696;23.354;2023-01-04T13:48:51;96215.00;;;9.47;81.15
7834;BME280;3962;42.696;23.354;2023-01-04T13:51:22;96215.59;;;9.40;81.29
7834;BME280;3962;42.696;23.354;2023-01-04T13:53:51;96225.75;;;9.46;81.21
7834;BME280;3962;42.696;23.354;2023-01-04T13:56:22;96225.16;;;9.42;81.47